createdAt,value
2022-08-30T00:04:02.891Z,10.80
2022-08-30T00:09:04.725Z,10.93
2022-08-30T00:14:07.132Z,14.35
2022-08-30T00:19:08.744Z,9.50
2022-08-30T00:24:10.331Z,9.43
2022-08-30T00:29:11.960Z,13.00
2022-08-30T00:34:16.856Z,8.68
2022-08-30T00:39:18.454Z,10.68
2022-08-30T00:44:20.086Z,10.10
2022-08-30T00:49:22.007Z,10.73
2022-08-30T00:54:26.300Z,10.10
2022-08-30T00:59:29.082Z,11.95
2022-08-30T01:04:33.573Z,11.18
2022-08-30T01:09:36.685Z,14.40
2022-08-30T01:14:38.567Z,12.95
2022-08-30T01:20:00.839Z,26.85
2022-08-30T01:25:05.052Z,25.73
2022-08-30T01:30:10.326Z,20.95
2022-08-30T01:35:15.757Z,23.20
2022-08-30T01:40:18.811Z,18.15
2022-08-30T01:45:20.601Z,21.00
2022-08-30T01:50:22.288Z,19.90
2022-08-30T01:55:24.118Z,18.08
2022-08-30T02:00:25.677Z,14.32
2022-08-30T02:05:27.549Z,16.02
2022-08-30T02:10:29.714Z,14.57
2022-08-30T02:15:31.422Z,10.75
2022-08-30T02:20:43.161Z,9.30
2022-08-30T02:25:45.323Z,11.25
2022-08-30T02:30:48.201Z,13.98
2022-08-30T02:35:49.900Z,10.48
2022-08-30T02:40:51.794Z,10.73
2022-08-30T02:45:53.869Z,10.40
2022-08-30T02:50:55.525Z,9.65
2022-08-30T02:55:57.151Z,11.43
2022-08-30T03:00:59.754Z,10.82
2022-08-30T03:06:03.367Z,11.05
2022-08-30T03:11:05.547Z,10.18
2022-08-30T03:16:07.211Z,10.07
2022-08-30T03:21:16.435Z,10.43
2022-08-30T03:26:18.228Z,12.13
2022-08-30T03:31:20.160Z,11.57
2022-08-30T03:36:21.808Z,10.40
2022-08-30T03:41:24.324Z,12.65
2022-08-30T03:46:26.846Z,11.10
2022-08-30T03:51:30.412Z,9.75
2022-08-30T03:56:31.984Z,10.50
2022-08-30T04:01:33.622Z,10.27
2022-08-30T04:06:35.289Z,11.57
2022-08-30T04:11:36.909Z,11.07
2022-08-30T04:16:38.603Z,11.43
2022-08-30T04:21:43.020Z,13.32
2022-08-30T04:26:44.868Z,10.30
2022-08-30T04:31:46.513Z,16.05
2022-08-30T04:36:49.096Z,13.35
2022-08-30T04:41:52.750Z,13.70
2022-08-30T04:46:54.519Z,12.15
2022-08-30T04:51:56.103Z,14.27
2022-08-30T04:56:57.719Z,10.05
2022-08-30T05:01:59.982Z,16.30
2022-08-30T05:07:01.674Z,12.60
2022-08-30T05:12:03.560Z,12.70
2022-08-30T05:17:05.510Z,15.20
2022-08-30T05:22:07.857Z,13.93
2022-08-30T05:27:09.452Z,12.55
2022-08-30T05:32:11.100Z,12.80
2022-08-30T05:37:12.691Z,15.80
2022-08-30T05:42:14.265Z,18.27
2022-08-30T05:47:19.576Z,12.20
2022-08-30T05:52:26.445Z,11.52
2022-08-30T05:57:28.077Z,17.27
2022-08-30T06:02:29.657Z,13.57
2022-08-30T06:07:31.528Z,13.50
2022-08-30T06:12:33.624Z,16.80
2022-08-30T06:17:35.547Z,15.43
2022-08-30T06:22:41.789Z,13.27
2022-08-30T06:27:43.702Z,13.45
2022-08-30T06:32:45.306Z,17.02
2022-08-30T06:37:46.871Z,14.70
2022-08-30T06:42:48.815Z,11.60
2022-08-30T06:47:50.452Z,15.25
2022-08-30T06:52:52.224Z,15.60
2022-08-30T06:57:53.811Z,13.57
2022-08-30T07:02:55.605Z,12.85
2022-08-30T07:07:57.272Z,14.32
2022-08-30T07:12:59.016Z,17.45
2022-08-30T07:18:18.775Z,13.40
2022-08-30T07:23:20.524Z,11.50
2022-08-30T07:28:22.233Z,17.77
2022-08-30T07:33:23.873Z,15.63
2022-08-30T07:38:37.797Z,11.30
2022-08-30T07:43:39.365Z,13.95
2022-08-30T07:48:41.529Z,12.30
2022-08-30T07:53:46.537Z,12.50
2022-08-30T07:58:49.019Z,10.68
2022-08-30T08:03:51.048Z,10.80
2022-08-30T08:08:53.804Z,9.00
2022-08-30T08:13:56.073Z,6.53
2022-08-30T08:18:57.895Z,7.85
2022-08-30T08:23:59.475Z,5.82
2022-08-30T08:29:01.087Z,8.95
2022-08-30T08:34:06.077Z,10.48
2022-08-30T08:39:09.307Z,7.05
2022-08-30T08:44:15.673Z,5.97
2022-08-30T08:49:17.521Z,6.93
2022-08-30T08:54:25.791Z,5.63
2022-08-30T08:59:27.461Z,6.85
2022-08-30T09:04:37.831Z,4.07
2022-08-30T09:09:40.582Z,5.68
2022-08-30T09:14:47.204Z,5.53
2022-08-30T09:19:51.823Z,6.57
2022-08-30T09:25:24.030Z,8.25
2022-08-30T09:30:28.679Z,4.10
2022-08-30T09:35:41.495Z,4.55
2022-08-30T09:40:45.987Z,4.05
2022-08-30T09:46:08.860Z,5.05
2022-08-30T09:51:10.476Z,3.13
2022-08-30T09:56:22.215Z,3.50
2022-08-30T10:01:38.292Z,3.78
2022-08-30T10:07:02.902Z,2.90
2022-08-30T10:12:23.000Z,3.20
2022-08-30T10:17:44.711Z,2.40
2022-08-30T10:22:52.441Z,5.72
2022-08-30T10:28:12.790Z,2.92
2022-08-30T10:33:25.494Z,2.35
2022-08-30T10:38:33.465Z,3.90
2022-08-30T10:43:40.016Z,3.40
2022-08-30T10:48:47.551Z,3.15
2022-08-30T10:54:09.106Z,3.20
2022-08-30T10:59:12.144Z,4.57
2022-08-30T11:04:45.416Z,3.78
2022-08-30T11:10:11.017Z,3.38
2022-08-30T11:15:37.316Z,2.80
2022-08-30T11:20:51.143Z,4.65
2022-08-30T11:26:04.224Z,3.03
2022-08-30T11:31:21.046Z,5.22
2022-08-30T11:36:46.180Z,3.28
2022-08-30T11:42:12.780Z,4.93
2022-08-30T11:47:39.601Z,2.67
2022-08-30T11:53:15.222Z,3.45
2022-08-30T11:58:23.901Z,3.15
2022-08-30T12:03:32.923Z,2.83
2022-08-30T12:13:37.893Z,2.50
2022-08-30T12:18:39.503Z,2.58
2022-08-30T12:23:48.671Z,4.43
2022-08-30T12:28:52.732Z,5.55
2022-08-30T12:34:00.783Z,2.45
2022-08-30T12:44:22.540Z,1.95
2022-08-30T12:54:30.780Z,2.22
2022-08-30T12:59:54.024Z,2.95
2022-08-30T13:05:28.327Z,2.43
2022-08-30T13:10:31.285Z,4.90
2022-08-30T13:15:41.231Z,3.25
2022-08-30T13:20:43.324Z,2.22
2022-08-30T13:25:45.372Z,3.17
2022-08-30T13:30:46.971Z,4.90
2022-08-30T13:35:48.583Z,3.03
2022-08-30T13:40:50.268Z,2.28
2022-08-30T13:45:52.114Z,2.38
2022-08-30T13:50:53.862Z,2.35
2022-08-30T13:55:55.506Z,2.35
2022-08-30T14:00:57.893Z,2.20
2022-08-30T14:06:21.799Z,4.13
2022-08-30T14:11:22.885Z,3.85
2022-08-30T14:16:28.251Z,2.28
2022-08-30T14:21:30.205Z,2.00
2022-08-30T14:26:45.774Z,2.38
2022-08-30T14:31:51.461Z,3.50
2022-08-30T14:36:53.212Z,1.83
2022-08-30T14:41:55.848Z,1.90
2022-08-30T14:46:57.541Z,2.08
2022-08-30T14:51:59.262Z,2.85
2022-08-30T14:57:00.967Z,2.28
2022-08-30T15:02:02.585Z,2.15
2022-08-30T15:07:04.515Z,2.70
2022-08-30T15:12:06.318Z,1.90
2022-08-30T15:17:09.323Z,2.20
2022-08-30T15:22:11.140Z,1.73
2022-08-30T15:27:12.771Z,3.92
2022-08-30T15:32:14.364Z,1.90
2022-08-30T15:37:22.355Z,1.75
2022-08-30T15:42:23.969Z,2.25
2022-08-30T15:47:25.566Z,2.38
2022-08-30T15:52:27.796Z,4.63
2022-08-30T15:57:29.446Z,2.60
2022-08-30T16:02:31.155Z,2.88
2022-08-30T16:07:36.277Z,2.80
2022-08-30T16:12:40.450Z,3.90
2022-08-30T16:17:42.038Z,2.90
2022-08-30T16:22:46.044Z,4.60
2022-08-30T16:27:48.924Z,2.70
2022-08-30T16:32:50.538Z,2.58
2022-08-30T16:37:52.241Z,2.90
2022-08-30T16:42:53.812Z,2.92
2022-08-30T16:47:55.479Z,2.83
2022-08-30T16:52:57.167Z,2.25
2022-08-30T16:57:58.744Z,3.60
2022-08-30T17:03:00.575Z,2.40
2022-08-30T17:08:04.148Z,2.55
2022-08-30T17:13:05.771Z,3.40
2022-08-30T17:18:07.381Z,2.80
2022-08-30T17:23:10.349Z,2.92
2022-08-30T17:28:11.934Z,2.55
2022-08-30T17:33:15.119Z,3.30
2022-08-30T17:38:19.709Z,3.78
2022-08-30T17:43:21.464Z,3.67
2022-08-30T17:48:23.100Z,2.17
2022-08-30T17:53:24.797Z,2.65
2022-08-30T17:58:26.554Z,3.20
2022-08-30T18:03:28.853Z,3.53
2022-08-30T18:08:30.967Z,2.88
2022-08-30T18:13:33.325Z,2.83
2022-08-30T18:18:36.488Z,2.92
2022-08-30T18:23:38.126Z,2.75
2022-08-30T18:28:41.544Z,4.50
2022-08-30T18:33:43.647Z,3.38
2022-08-30T18:38:45.525Z,3.13
2022-08-30T18:43:47.213Z,5.10
2022-08-30T18:48:49.248Z,2.58
2022-08-30T18:53:50.867Z,6.22
2022-08-30T18:58:52.476Z,2.85
2022-08-30T19:03:54.108Z,3.35
2022-08-30T19:08:56.146Z,3.15
2022-08-30T19:13:57.757Z,2.42
2022-08-30T19:18:59.623Z,6.72
2022-08-30T19:24:01.801Z,2.30
2022-08-30T19:29:05.194Z,5.10
2022-08-30T19:34:06.885Z,3.90
2022-08-30T19:39:09.984Z,4.28
2022-08-30T19:44:11.834Z,3.22
2022-08-30T19:49:13.444Z,4.35
2022-08-30T19:54:15.331Z,3.05
2022-08-30T19:59:19.570Z,5.28
2022-08-30T20:04:22.147Z,4.53
2022-08-30T20:09:25.175Z,4.47
2022-08-30T20:14:26.887Z,3.08
2022-08-30T20:19:29.299Z,3.30
2022-08-30T20:24:31.171Z,5.63
2022-08-30T20:29:34.487Z,4.72
2022-08-30T20:34:37.209Z,4.00
2022-08-30T20:39:39.204Z,4.50
2022-08-30T20:44:40.796Z,2.95
2022-08-30T20:49:43.293Z,4.95
2022-08-30T20:54:45.189Z,4.72
2022-08-30T20:59:46.768Z,3.70
2022-08-30T21:04:48.493Z,2.70
2022-08-30T21:09:50.431Z,5.47
2022-08-30T21:14:52.255Z,4.82
2022-08-30T21:19:55.345Z,4.53
2022-08-30T21:24:56.962Z,5.22
2022-08-30T21:29:58.654Z,3.88
2022-08-30T21:35:18.482Z,3.67
2022-08-30T21:40:20.871Z,3.80
2022-08-30T21:45:22.977Z,5.72
2022-08-30T21:50:24.559Z,6.45
2022-08-30T21:55:26.433Z,8.60
2022-08-30T22:00:28.181Z,7.82
2022-08-30T22:05:29.846Z,5.22
2022-08-30T22:10:33.374Z,5.00
2022-08-30T22:15:35.121Z,5.63
2022-08-30T22:20:36.712Z,4.68
2022-08-30T22:25:38.282Z,3.92
2022-08-30T22:30:39.935Z,3.70
2022-08-30T22:35:41.592Z,4.93
2022-08-30T22:40:54.264Z,4.72
2022-08-30T22:45:57.934Z,3.53
2022-08-30T22:50:59.617Z,7.55
2022-08-30T22:56:07.285Z,3.88
2022-08-30T23:01:17.979Z,4.20
2022-08-30T23:06:19.976Z,3.20
2022-08-30T23:11:22.255Z,2.83
2022-08-30T23:16:24.914Z,5.32
2022-08-30T23:21:29.825Z,6.90
2022-08-30T23:26:50.109Z,3.25
2022-08-30T23:32:10.440Z,3.38
2022-08-30T23:37:30.710Z,2.63
2022-08-30T23:42:50.527Z,5.68
2022-08-30T23:48:10.412Z,4.78
2022-08-30T23:53:30.570Z,3.58
2022-08-30T23:58:50.514Z,3.72
